EZY66P EGCC-LSZH
Flight info
| Callsign | EZY66P |
|---|---|
| Flight time | 1h 55m |
| Altitude | 23000 |
| Route | SANBA N859 HON/N0432F370 UL612 VEULE DCT TEPRI DCT POGZI DCT GELTA DCT MANAG DCT PEVIT DCT BLM |
| Aircraft | A20N/M-SDE2E3FGHIRWXY/LB1 |
Departure
| Time | 2026-04-26 11:53 |
|---|---|
| Airport | Manchester Airport (EGCC) |
Arrival
| Time | 2026-04-26 13:48 |
|---|---|
| Airport | Zürich Airport (LSZH) |
| Time | Latitude | Longitude | Altitude | Speed | Heading |
|---|---|---|---|---|---|
| 2026-04-26 11:30 | 53.35880 | -2.27527 | 247 ft | 0 kts | 95° |
| 2026-04-26 11:36 | 53.35880 | -2.27528 | 247 ft | 1 kts | 95° |
| 2026-04-26 11:37 | 53.35881 | -2.27541 | 247 ft | 1 kts | 95° |
| 2026-04-26 11:37 | 53.35882 | -2.27554 | 247 ft | 1 kts | 95° |
| 2026-04-26 11:37 | 53.35882 | -2.27567 | 247 ft | 1 kts | 89° |
| 2026-04-26 11:37 | 53.35882 | -2.27580 | 247 ft | 1 kts | 83° |
| 2026-04-26 11:38 | 53.35881 | -2.27593 | 247 ft | 1 kts | 83° |
| 2026-04-26 11:38 | 53.35880 | -2.27606 | 247 ft | 1 kts | 85° |
| 2026-04-26 11:38 | 53.35879 | -2.27619 | 247 ft | 1 kts | 96° |
| 2026-04-26 11:38 | 53.35880 | -2.27632 | 247 ft | 1 kts | 124° |
| 2026-04-26 11:39 | 53.35885 | -2.27642 | 247 ft | 1 kts | 156° |
| 2026-04-26 11:39 | 53.35890 | -2.27646 | 247 ft | 0 kts | 185° |
| 2026-04-26 11:40 | 53.35885 | -2.27647 | 247 ft | 3 kts | 185° |
| 2026-04-26 11:40 | 53.35848 | -2.27652 | 247 ft | 6 kts | 185° |
| 2026-04-26 11:41 | 53.35785 | -2.27661 | 247 ft | 11 kts | 185° |
| 2026-04-26 11:42 | 53.35923 | -2.26778 | 254 ft | 21 kts | 57° |
| 2026-04-26 11:43 | 53.36014 | -2.26586 | 253 ft | 22 kts | 51° |
| 2026-04-26 11:43 | 53.36110 | -2.26382 | 253 ft | 21 kts | 52° |
| 2026-04-26 11:43 | 53.36175 | -2.26264 | 252 ft | 13 kts | 31° |
| 2026-04-26 11:43 | 53.36244 | -2.26151 | 250 ft | 13 kts | 51° |
| 2026-04-26 11:44 | 53.36257 | -2.26122 | 250 ft | 0 kts | 52° |
| 2026-04-26 11:49 | 53.36267 | -2.26098 | 250 ft | 5 kts | 58° |
| 2026-04-26 11:49 | 53.36270 | -2.26043 | 252 ft | 4 kts | 97° |
| 2026-04-26 11:49 | 53.36269 | -2.26022 | 253 ft | 0 kts | 96° |
| 2026-04-26 11:51 | 53.36268 | -2.26004 | 254 ft | 8 kts | 90° |
| 2026-04-26 11:51 | 53.36289 | -2.25877 | 257 ft | 13 kts | 81° |
| 2026-04-26 11:52 | 53.36255 | -2.25764 | 261 ft | 12 kts | 142° |
| 2026-04-26 11:52 | 53.36218 | -2.25754 | 260 ft | 0 kts | 217° |
| 2026-04-26 11:52 | 53.36168 | -2.25852 | 259 ft | 35 kts | 231° |
| 2026-04-26 11:52 | 53.35837 | -2.26537 | 265 ft | 114 kts | 231° |
| 2026-04-26 11:53 | 53.35197 | -2.27848 | 295 ft | 172 kts | 230° |
| 2026-04-26 11:53 | 53.34411 | -2.29512 | 865 ft | 186 kts | 230° |
| 2026-04-26 11:53 | 53.33636 | -2.31164 | 2012 ft | 173 kts | 229° |
| 2026-04-26 11:54 | 53.32179 | -2.34535 | 3214 ft | 198 kts | 250° |
| 2026-04-26 11:54 | 53.32014 | -2.36910 | 3702 ft | 220 kts | 269° |
| 2026-04-26 11:54 | 53.32137 | -2.39598 | 4202 ft | 243 kts | 274° |
| 2026-04-26 11:54 | 53.31969 | -2.42492 | 4665 ft | 257 kts | 250° |
| 2026-04-26 11:55 | 53.31034 | -2.44943 | 4759 ft | 252 kts | 222° |
| 2026-04-26 11:55 | 53.29487 | -2.46337 | 4816 ft | 259 kts | 193° |
| 2026-04-26 11:55 | 53.27664 | -2.46241 | 5326 ft | 267 kts | 167° |
| 2026-04-26 11:55 | 53.25976 | -2.44950 | 6414 ft | 266 kts | 150° |
| 2026-04-26 11:56 | 53.24439 | -2.43261 | 7353 ft | 268 kts | 148° |
| 2026-04-26 11:56 | 53.22864 | -2.41527 | 8192 ft | 274 kts | 150° |
| 2026-04-26 11:56 | 53.21200 | -2.39841 | 8916 ft | 282 kts | 151° |
| 2026-04-26 11:56 | 53.19498 | -2.38249 | 9776 ft | 285 kts | 153° |
| 2026-04-26 11:57 | 53.17727 | -2.36676 | 10579 ft | 291 kts | 154° |
| 2026-04-26 11:57 | 53.15860 | -2.35047 | 10951 ft | 313 kts | 155° |
| 2026-04-26 11:57 | 53.13880 | -2.33338 | 11230 ft | 334 kts | 155° |
| 2026-04-26 11:57 | 53.11780 | -2.31525 | 11863 ft | 342 kts | 154° |
| 2026-04-26 11:58 | 53.09657 | -2.29679 | 12678 ft | 345 kts | 155° |
| 2026-04-26 11:58 | 53.07536 | -2.27836 | 13440 ft | 349 kts | 154° |
| 2026-04-26 11:58 | 53.05361 | -2.25949 | 14181 ft | 354 kts | 154° |
| 2026-04-26 11:58 | 53.03156 | -2.24037 | 14860 ft | 357 kts | 154° |
| 2026-04-26 11:59 | 53.00941 | -2.22118 | 15551 ft | 361 kts | 154° |
| 2026-04-26 11:59 | 52.98725 | -2.20198 | 16188 ft | 365 kts | 154° |
| 2026-04-26 11:59 | 52.96459 | -2.18231 | 16899 ft | 367 kts | 154° |
| 2026-04-26 11:59 | 52.94170 | -2.16248 | 17554 ft | 371 kts | 154° |
| 2026-04-26 12:00 | 52.91889 | -2.14273 | 18212 ft | 374 kts | 154° |
| 2026-04-26 12:00 | 52.89577 | -2.12276 | 18810 ft | 378 kts | 154° |
| 2026-04-26 12:00 | 52.88009 | -2.10922 | 19183 ft | 381 kts | 154° |
| 2026-04-26 12:00 | 52.84860 | -2.08207 | 19919 ft | 385 kts | 155° |
| 2026-04-26 12:01 | 52.83273 | -2.06841 | 20270 ft | 388 kts | 155° |
| 2026-04-26 12:01 | 52.80861 | -2.04766 | 20816 ft | 392 kts | 155° |
| 2026-04-26 12:01 | 52.78443 | -2.02689 | 21355 ft | 395 kts | 155° |
| 2026-04-26 12:01 | 52.75976 | -2.00572 | 21869 ft | 400 kts | 155° |
| 2026-04-26 12:02 | 52.73510 | -1.98462 | 22323 ft | 403 kts | 155° |
| 2026-04-26 12:02 | 52.70990 | -1.96305 | 22923 ft | 406 kts | 155° |
| 2026-04-26 12:02 | 52.68497 | -1.94174 | 23089 ft | 409 kts | 155° |
| 2026-04-26 12:02 | 52.65957 | -1.92005 | 23196 ft | 409 kts | 155° |
| 2026-04-26 12:03 | 52.63447 | -1.89865 | 23300 ft | 410 kts | 155° |
| 2026-04-26 12:03 | 52.60901 | -1.87697 | 23309 ft | 410 kts | 155° |
| 2026-04-26 12:03 | 52.58359 | -1.85536 | 23317 ft | 410 kts | 155° |
| 2026-04-26 12:03 | 52.55848 | -1.83404 | 23320 ft | 410 kts | 155° |
| 2026-04-26 12:04 | 52.53308 | -1.81251 | 23319 ft | 410 kts | 155° |
| 2026-04-26 12:04 | 52.50792 | -1.79121 | 23313 ft | 409 kts | 155° |
| 2026-04-26 12:04 | 52.48263 | -1.76983 | 23320 ft | 407 kts | 155° |
| 2026-04-26 12:04 | 52.45730 | -1.74844 | 23321 ft | 408 kts | 155° |
| 2026-04-26 12:05 | 52.43200 | -1.72710 | 23320 ft | 408 kts | 155° |
| 2026-04-26 12:05 | 52.40703 | -1.70608 | 23319 ft | 408 kts | 155° |
| 2026-04-26 12:05 | 52.38161 | -1.68469 | 23322 ft | 408 kts | 155° |
| 2026-04-26 12:05 | 52.35630 | -1.66330 | 23316 ft | 408 kts | 153° |
| 2026-04-26 12:06 | 52.33190 | -1.63996 | 23316 ft | 409 kts | 151° |
| 2026-04-26 12:06 | 52.30729 | -1.61600 | 23316 ft | 409 kts | 151° |
| 2026-04-26 12:06 | 52.28316 | -1.59252 | 23336 ft | 409 kts | 151° |
| 2026-04-26 12:06 | 52.25855 | -1.56862 | 23343 ft | 408 kts | 151° |
| 2026-04-26 12:07 | 52.23437 | -1.54517 | 23351 ft | 408 kts | 151° |
| 2026-04-26 12:07 | 52.20975 | -1.52133 | 23337 ft | 408 kts | 151° |
| 2026-04-26 12:07 | 52.18539 | -1.49780 | 23337 ft | 408 kts | 151° |
| 2026-04-26 12:07 | 52.16114 | -1.47442 | 23330 ft | 408 kts | 151° |
| 2026-04-26 12:08 | 52.13655 | -1.45076 | 23341 ft | 411 kts | 152° |
| 2026-04-26 12:08 | 52.11202 | -1.42718 | 23349 ft | 411 kts | 152° |
| 2026-04-26 12:08 | 52.08731 | -1.40345 | 23337 ft | 411 kts | 152° |
| 2026-04-26 12:08 | 52.06283 | -1.37996 | 23337 ft | 411 kts | 152° |
| 2026-04-26 12:09 | 52.03808 | -1.35626 | 23332 ft | 410 kts | 152° |
| 2026-04-26 12:09 | 52.01342 | -1.33268 | 23312 ft | 410 kts | 152° |
| 2026-04-26 12:09 | 51.98898 | -1.30934 | 23314 ft | 410 kts | 152° |
| 2026-04-26 12:09 | 51.96447 | -1.28595 | 23315 ft | 411 kts | 152° |
| 2026-04-26 12:10 | 51.93981 | -1.26245 | 23320 ft | 411 kts | 152° |
| 2026-04-26 12:10 | 51.91531 | -1.23914 | 23325 ft | 410 kts | 152° |
| 2026-04-26 12:10 | 51.89044 | -1.21550 | 23323 ft | 411 kts | 152° |
| 2026-04-26 12:10 | 51.86590 | -1.19221 | 23320 ft | 410 kts | 152° |
| 2026-04-26 12:11 | 51.84119 | -1.16878 | 23324 ft | 411 kts | 152° |
| 2026-04-26 12:11 | 51.81664 | -1.14554 | 23321 ft | 411 kts | 152° |
| 2026-04-26 12:11 | 51.79222 | -1.12244 | 23309 ft | 409 kts | 152° |
| 2026-04-26 12:11 | 51.76745 | -1.09906 | 23295 ft | 409 kts | 152° |
| 2026-04-26 12:12 | 51.74303 | -1.07603 | 23293 ft | 409 kts | 152° |
| 2026-04-26 12:12 | 51.71855 | -1.05297 | 23290 ft | 409 kts | 152° |
| 2026-04-26 12:12 | 51.69373 | -1.02962 | 23291 ft | 409 kts | 152° |
| 2026-04-26 12:12 | 51.67758 | -1.01444 | 23291 ft | 409 kts | 152° |
| 2026-04-26 12:13 | 51.64472 | -0.98361 | 23297 ft | 409 kts | 152° |
| 2026-04-26 12:13 | 51.62006 | -0.96050 | 23294 ft | 410 kts | 152° |
| 2026-04-26 12:13 | 51.59536 | -0.93738 | 23304 ft | 413 kts | 152° |
| 2026-04-26 12:13 | 51.57075 | -0.91439 | 23304 ft | 412 kts | 152° |
| 2026-04-26 12:14 | 51.54593 | -0.89118 | 23305 ft | 411 kts | 152° |
| 2026-04-26 12:14 | 51.52098 | -0.86793 | 23310 ft | 411 kts | 152° |
| 2026-04-26 12:14 | 51.49639 | -0.84503 | 23309 ft | 411 kts | 152° |
| 2026-04-26 12:14 | 51.47156 | -0.82195 | 23309 ft | 411 kts | 152° |
| 2026-04-26 12:15 | 51.44698 | -0.79913 | 23314 ft | 411 kts | 152° |
| 2026-04-26 12:15 | 51.42213 | -0.77607 | 23313 ft | 411 kts | 152° |
| 2026-04-26 12:15 | 51.39744 | -0.75322 | 23311 ft | 411 kts | 152° |
| 2026-04-26 12:15 | 51.37257 | -0.73020 | 23312 ft | 411 kts | 152° |
| 2026-04-26 12:16 | 51.34801 | -0.70748 | 23311 ft | 411 kts | 152° |
| 2026-04-26 12:16 | 51.32318 | -0.68456 | 23311 ft | 410 kts | 152° |
| 2026-04-26 12:16 | 51.29833 | -0.66164 | 23319 ft | 409 kts | 152° |
| 2026-04-26 12:16 | 51.27381 | -0.63907 | 23317 ft | 410 kts | 152° |
| 2026-04-26 12:17 | 51.24927 | -0.61651 | 23318 ft | 410 kts | 152° |
| 2026-04-26 12:17 | 51.22453 | -0.59379 | 23317 ft | 410 kts | 152° |
| 2026-04-26 12:17 | 51.19974 | -0.57106 | 23315 ft | 410 kts | 152° |
| 2026-04-26 12:17 | 51.17484 | -0.54825 | 23313 ft | 410 kts | 152° |
| 2026-04-26 12:18 | 51.15039 | -0.52587 | 23311 ft | 410 kts | 153° |
| 2026-04-26 12:18 | 51.12554 | -0.50317 | 23311 ft | 410 kts | 153° |
| 2026-04-26 12:18 | 51.10074 | -0.48053 | 23312 ft | 410 kts | 153° |
| 2026-04-26 12:18 | 51.07621 | -0.45817 | 23312 ft | 410 kts | 153° |
| 2026-04-26 12:19 | 51.05142 | -0.43560 | 23313 ft | 410 kts | 153° |
| 2026-04-26 12:19 | 51.02656 | -0.41302 | 23312 ft | 410 kts | 153° |
| 2026-04-26 12:19 | 51.00204 | -0.39075 | 23312 ft | 410 kts | 153° |
| 2026-04-26 12:19 | 50.97712 | -0.36815 | 23314 ft | 410 kts | 153° |
| 2026-04-26 12:20 | 50.95220 | -0.34558 | 23316 ft | 410 kts | 153° |
| 2026-04-26 12:20 | 50.92761 | -0.32333 | 23318 ft | 410 kts | 153° |
| 2026-04-26 12:20 | 50.90280 | -0.30090 | 23317 ft | 410 kts | 153° |
| 2026-04-26 12:20 | 50.87829 | -0.27877 | 23320 ft | 410 kts | 153° |
| 2026-04-26 12:21 | 50.85342 | -0.25635 | 23320 ft | 409 kts | 153° |
| 2026-04-26 12:21 | 50.82864 | -0.23405 | 23320 ft | 409 kts | 153° |
| 2026-04-26 12:21 | 50.80402 | -0.21191 | 23320 ft | 409 kts | 153° |
| 2026-04-26 12:21 | 50.77945 | -0.18984 | 23318 ft | 409 kts | 153° |
| 2026-04-26 12:22 | 50.75455 | -0.16751 | 23317 ft | 409 kts | 153° |
| 2026-04-26 12:22 | 50.73004 | -0.14554 | 23318 ft | 409 kts | 153° |
| 2026-04-26 12:22 | 50.70514 | -0.12327 | 23316 ft | 409 kts | 153° |
| 2026-04-26 12:22 | 50.68054 | -0.10128 | 23315 ft | 409 kts | 153° |
| 2026-04-26 12:23 | 50.65568 | -0.07909 | 23312 ft | 409 kts | 153° |
| 2026-04-26 12:23 | 50.63103 | -0.05712 | 23311 ft | 408 kts | 153° |
| 2026-04-26 12:23 | 50.60617 | -0.03498 | 23307 ft | 408 kts | 153° |
| 2026-04-26 12:23 | 50.58137 | -0.01292 | 23303 ft | 409 kts | 153° |
| 2026-04-26 12:24 | 50.55667 | 0.00901 | 23305 ft | 413 kts | 153° |
| 2026-04-26 12:24 | 50.53148 | 0.03135 | 23308 ft | 413 kts | 153° |
| 2026-04-26 12:24 | 50.50673 | 0.05329 | 23303 ft | 412 kts | 153° |
| 2026-04-26 12:25 | 50.45683 | 0.09743 | 23304 ft | 412 kts | 153° |
| 2026-04-26 12:25 | 50.43195 | 0.11940 | 23303 ft | 412 kts | 153° |
| 2026-04-26 12:25 | 50.40701 | 0.14139 | 23298 ft | 412 kts | 153° |
| 2026-04-26 12:25 | 50.38188 | 0.16351 | 23301 ft | 412 kts | 153° |
| 2026-04-26 12:26 | 50.35676 | 0.18561 | 23303 ft | 412 kts | 153° |
| 2026-04-26 12:26 | 50.33190 | 0.20745 | 23303 ft | 412 kts | 153° |
| 2026-04-26 12:26 | 50.30703 | 0.22927 | 23300 ft | 412 kts | 153° |
| 2026-04-26 12:26 | 50.28190 | 0.25130 | 23300 ft | 412 kts | 153° |
| 2026-04-26 12:27 | 50.25671 | 0.27335 | 23297 ft | 412 kts | 153° |
| 2026-04-26 12:27 | 50.23196 | 0.29499 | 23298 ft | 412 kts | 153° |
| 2026-04-26 12:27 | 50.20671 | 0.31704 | 23297 ft | 412 kts | 153° |
| 2026-04-26 12:27 | 50.18188 | 0.33869 | 23295 ft | 413 kts | 153° |
| 2026-04-26 12:28 | 50.15661 | 0.36070 | 23295 ft | 414 kts | 153° |
| 2026-04-26 12:28 | 50.13177 | 0.38231 | 23293 ft | 413 kts | 153° |
| 2026-04-26 12:28 | 50.10655 | 0.40424 | 23292 ft | 413 kts | 153° |
| 2026-04-26 12:28 | 50.08132 | 0.42613 | 23292 ft | 413 kts | 153° |
| 2026-04-26 12:29 | 50.05621 | 0.44790 | 23289 ft | 413 kts | 153° |
| 2026-04-26 12:29 | 50.03129 | 0.46947 | 23290 ft | 415 kts | 153° |
| 2026-04-26 12:29 | 49.98086 | 0.51304 | 23290 ft | 415 kts | 153° |
| 2026-04-26 12:30 | 49.95537 | 0.53504 | 23280 ft | 415 kts | 153° |
| 2026-04-26 12:30 | 49.93037 | 0.55659 | 23284 ft | 416 kts | 153° |
| 2026-04-26 12:30 | 49.90491 | 0.57853 | 23284 ft | 415 kts | 153° |
| 2026-04-26 12:31 | 49.85610 | 0.62581 | 23278 ft | 418 kts | 142° |
| 2026-04-26 12:31 | 49.83473 | 0.65658 | 23276 ft | 420 kts | 134° |
| 2026-04-26 12:31 | 49.81523 | 0.68987 | 23277 ft | 420 kts | 134° |
| 2026-04-26 12:31 | 49.79554 | 0.72352 | 23275 ft | 420 kts | 134° |
| 2026-04-26 12:32 | 49.77582 | 0.75710 | 23271 ft | 420 kts | 134° |
| 2026-04-26 12:32 | 49.75631 | 0.79019 | 23269 ft | 420 kts | 134° |
| 2026-04-26 12:32 | 49.71687 | 0.85682 | 23269 ft | 420 kts | 134° |
| 2026-04-26 12:33 | 49.69708 | 0.89018 | 23269 ft | 420 kts | 134° |
| 2026-04-26 12:33 | 49.67745 | 0.92322 | 23266 ft | 421 kts | 134° |
| 2026-04-26 12:33 | 49.65761 | 0.95657 | 23265 ft | 421 kts | 134° |
| 2026-04-26 12:33 | 49.63766 | 0.99007 | 23267 ft | 421 kts | 134° |
| 2026-04-26 12:34 | 49.61801 | 1.02304 | 23268 ft | 421 kts | 134° |
| 2026-04-26 12:34 | 49.59801 | 1.05653 | 23266 ft | 421 kts | 134° |
| 2026-04-26 12:34 | 49.57834 | 1.08944 | 23263 ft | 421 kts | 134° |
| 2026-04-26 12:34 | 49.55855 | 1.12250 | 23263 ft | 421 kts | 134° |
| 2026-04-26 12:35 | 49.53862 | 1.15575 | 23265 ft | 421 kts | 134° |
| 2026-04-26 12:35 | 49.51890 | 1.18861 | 23265 ft | 421 kts | 134° |
| 2026-04-26 12:35 | 49.49909 | 1.22157 | 23267 ft | 420 kts | 134° |
| 2026-04-26 12:35 | 49.47914 | 1.25474 | 23262 ft | 420 kts | 134° |
| 2026-04-26 12:36 | 49.45913 | 1.28796 | 23267 ft | 421 kts | 134° |
| 2026-04-26 12:36 | 49.43933 | 1.32079 | 23263 ft | 421 kts | 134° |
| 2026-04-26 12:36 | 49.41955 | 1.35350 | 23268 ft | 420 kts | 134° |
| 2026-04-26 12:36 | 49.39957 | 1.38652 | 23268 ft | 420 kts | 134° |
| 2026-04-26 12:37 | 49.37975 | 1.41924 | 23266 ft | 420 kts | 134° |
| 2026-04-26 12:37 | 49.35968 | 1.45235 | 23265 ft | 420 kts | 134° |
| 2026-04-26 12:37 | 49.33981 | 1.48508 | 23264 ft | 420 kts | 134° |
| 2026-04-26 12:37 | 49.31997 | 1.51771 | 23262 ft | 420 kts | 134° |
| 2026-04-26 12:38 | 49.30013 | 1.55031 | 23261 ft | 420 kts | 134° |
| 2026-04-26 12:38 | 49.28004 | 1.58328 | 23260 ft | 419 kts | 134° |
| 2026-04-26 12:38 | 49.26021 | 1.61577 | 23263 ft | 419 kts | 134° |
| 2026-04-26 12:38 | 49.24017 | 1.64857 | 23260 ft | 420 kts | 134° |
| 2026-04-26 12:39 | 49.22030 | 1.68104 | 23255 ft | 419 kts | 134° |
| 2026-04-26 12:39 | 49.20040 | 1.71354 | 23258 ft | 419 kts | 134° |
| 2026-04-26 12:39 | 49.18059 | 1.74584 | 23258 ft | 419 kts | 134° |
| 2026-04-26 12:39 | 49.16045 | 1.77863 | 23262 ft | 420 kts | 134° |
| 2026-04-26 12:40 | 49.14046 | 1.81112 | 23258 ft | 422 kts | 134° |
| 2026-04-26 12:40 | 49.12046 | 1.84360 | 23257 ft | 421 kts | 134° |
| 2026-04-26 12:40 | 49.10027 | 1.87637 | 23263 ft | 421 kts | 134° |
| 2026-04-26 12:40 | 49.08028 | 1.90876 | 23264 ft | 421 kts | 134° |
| 2026-04-26 12:41 | 49.06024 | 1.94119 | 23254 ft | 421 kts | 134° |
| 2026-04-26 12:41 | 49.03999 | 1.97391 | 23264 ft | 421 kts | 134° |
| 2026-04-26 12:41 | 49.01997 | 2.00623 | 23264 ft | 421 kts | 134° |
| 2026-04-26 12:41 | 48.99999 | 2.03843 | 23264 ft | 421 kts | 134° |
| 2026-04-26 12:42 | 48.97995 | 2.07071 | 23264 ft | 421 kts | 134° |
| 2026-04-26 12:42 | 48.95972 | 2.10323 | 23263 ft | 421 kts | 134° |
| 2026-04-26 12:42 | 48.93948 | 2.13574 | 23262 ft | 421 kts | 134° |
| 2026-04-26 12:42 | 48.91934 | 2.16805 | 23241 ft | 421 kts | 134° |
| 2026-04-26 12:43 | 48.89919 | 2.20031 | 23243 ft | 422 kts | 134° |
| 2026-04-26 12:43 | 48.87894 | 2.23270 | 23239 ft | 423 kts | 134° |
| 2026-04-26 12:43 | 48.85869 | 2.26507 | 23238 ft | 422 kts | 134° |
| 2026-04-26 12:43 | 48.83844 | 2.29740 | 23238 ft | 422 kts | 134° |
| 2026-04-26 12:44 | 48.81816 | 2.32972 | 23238 ft | 422 kts | 134° |
| 2026-04-26 12:44 | 48.79789 | 2.36198 | 23238 ft | 422 kts | 134° |
| 2026-04-26 12:44 | 48.77791 | 2.39376 | 23238 ft | 422 kts | 134° |
| 2026-04-26 12:44 | 48.75758 | 2.42605 | 23238 ft | 422 kts | 134° |
| 2026-04-26 12:45 | 48.73723 | 2.45832 | 23238 ft | 422 kts | 134° |
| 2026-04-26 12:45 | 48.71692 | 2.49047 | 23238 ft | 422 kts | 134° |
| 2026-04-26 12:45 | 48.69661 | 2.52261 | 23238 ft | 422 kts | 134° |
| 2026-04-26 12:45 | 48.67629 | 2.55472 | 23238 ft | 422 kts | 134° |
| 2026-04-26 12:46 | 48.65596 | 2.58682 | 23238 ft | 422 kts | 134° |
| 2026-04-26 12:46 | 48.63587 | 2.61848 | 23242 ft | 423 kts | 134° |
| 2026-04-26 12:46 | 48.61547 | 2.65057 | 23236 ft | 424 kts | 134° |
| 2026-04-26 12:46 | 48.59504 | 2.68268 | 23239 ft | 423 kts | 134° |
| 2026-04-26 12:47 | 48.57488 | 2.71502 | 23234 ft | 423 kts | 129° |
| 2026-04-26 12:47 | 48.55913 | 2.75237 | 23239 ft | 423 kts | 114° |
| 2026-04-26 12:47 | 48.55037 | 2.79447 | 23239 ft | 421 kts | 98° |
| 2026-04-26 12:47 | 48.54795 | 2.83848 | 23241 ft | 420 kts | 91° |
| 2026-04-26 12:48 | 48.54691 | 2.88252 | 23241 ft | 420 kts | 90° |
| 2026-04-26 12:48 | 48.54595 | 2.92659 | 23241 ft | 420 kts | 91° |
| 2026-04-26 12:48 | 48.54481 | 2.97063 | 23239 ft | 420 kts | 91° |
| 2026-04-26 12:48 | 48.54347 | 3.01476 | 23239 ft | 420 kts | 91° |
| 2026-04-26 12:49 | 48.54203 | 3.05872 | 23236 ft | 421 kts | 92° |
| 2026-04-26 12:49 | 48.54053 | 3.10236 | 23234 ft | 422 kts | 92° |
| 2026-04-26 12:49 | 48.53898 | 3.14670 | 23234 ft | 421 kts | 92° |
| 2026-04-26 12:49 | 48.53741 | 3.19079 | 23234 ft | 421 kts | 92° |
| 2026-04-26 12:50 | 48.53583 | 3.23489 | 23236 ft | 421 kts | 92° |
| 2026-04-26 12:50 | 48.53423 | 3.27905 | 23235 ft | 421 kts | 92° |
| 2026-04-26 12:50 | 48.53261 | 3.32332 | 23234 ft | 421 kts | 92° |
| 2026-04-26 12:50 | 48.53098 | 3.36746 | 23233 ft | 421 kts | 92° |
| 2026-04-26 12:51 | 48.52933 | 3.41163 | 23233 ft | 422 kts | 92° |
| 2026-04-26 12:51 | 48.52767 | 3.45579 | 23234 ft | 422 kts | 92° |
| 2026-04-26 12:51 | 48.52599 | 3.50000 | 23226 ft | 422 kts | 92° |
| 2026-04-26 12:51 | 48.52429 | 3.54423 | 23225 ft | 422 kts | 92° |
| 2026-04-26 12:52 | 48.52315 | 3.57354 | 23227 ft | 422 kts | 92° |
| 2026-04-26 12:52 | 48.52085 | 3.63226 | 23223 ft | 422 kts | 92° |
| 2026-04-26 12:52 | 48.51966 | 3.66215 | 23224 ft | 422 kts | 92° |
| 2026-04-26 12:52 | 48.51790 | 3.70631 | 23226 ft | 422 kts | 92° |
| 2026-04-26 12:53 | 48.51613 | 3.75049 | 23230 ft | 422 kts | 92° |
| 2026-04-26 12:53 | 48.51433 | 3.79461 | 23232 ft | 422 kts | 92° |
| 2026-04-26 12:53 | 48.51254 | 3.83829 | 23234 ft | 422 kts | 92° |
| 2026-04-26 12:53 | 48.51069 | 3.88287 | 23230 ft | 422 kts | 92° |
| 2026-04-26 12:54 | 48.50884 | 3.92704 | 23229 ft | 422 kts | 92° |
| 2026-04-26 12:54 | 48.50695 | 3.97068 | 23231 ft | 422 kts | 94° |
| 2026-04-26 12:54 | 48.50210 | 4.01454 | 23231 ft | 423 kts | 104° |
| 2026-04-26 12:54 | 48.49268 | 4.05648 | 23231 ft | 424 kts | 113° |
| 2026-04-26 12:55 | 48.47943 | 4.09620 | 23233 ft | 424 kts | 118° |
| 2026-04-26 12:55 | 48.46569 | 4.13560 | 23233 ft | 424 kts | 117° |
| 2026-04-26 12:55 | 48.45206 | 4.17502 | 23231 ft | 424 kts | 117° |
| 2026-04-26 12:55 | 48.43846 | 4.21440 | 23231 ft | 424 kts | 117° |
| 2026-04-26 12:56 | 48.42483 | 4.25380 | 23231 ft | 424 kts | 117° |
| 2026-04-26 12:56 | 48.41122 | 4.29307 | 23237 ft | 424 kts | 117° |
| 2026-04-26 12:56 | 48.39754 | 4.33246 | 23229 ft | 424 kts | 117° |
| 2026-04-26 12:56 | 48.38384 | 4.37183 | 23227 ft | 424 kts | 117° |
| 2026-04-26 12:57 | 48.37031 | 4.41066 | 23220 ft | 424 kts | 117° |
| 2026-04-26 12:57 | 48.35662 | 4.44989 | 23219 ft | 424 kts | 117° |
| 2026-04-26 12:57 | 48.34288 | 4.48918 | 23214 ft | 424 kts | 117° |
| 2026-04-26 12:58 | 48.31538 | 4.56768 | 23210 ft | 423 kts | 117° |
| 2026-04-26 12:58 | 48.30160 | 4.60689 | 23209 ft | 424 kts | 117° |
| 2026-04-26 12:58 | 48.28783 | 4.64604 | 23209 ft | 424 kts | 117° |
| 2026-04-26 12:58 | 48.27406 | 4.68514 | 23209 ft | 424 kts | 118° |
| 2026-04-26 12:59 | 48.26045 | 4.72370 | 23218 ft | 424 kts | 117° |
| 2026-04-26 12:59 | 48.24660 | 4.76287 | 23207 ft | 425 kts | 117° |
| 2026-04-26 12:59 | 48.23274 | 4.80206 | 23208 ft | 425 kts | 117° |
| 2026-04-26 12:59 | 48.21888 | 4.84121 | 23204 ft | 425 kts | 117° |
| 2026-04-26 13:00 | 48.20500 | 4.88032 | 23205 ft | 425 kts | 117° |
| 2026-04-26 13:00 | 48.19111 | 4.91938 | 23208 ft | 425 kts | 117° |
| 2026-04-26 13:00 | 48.17720 | 4.95846 | 23204 ft | 425 kts | 117° |
| 2026-04-26 13:00 | 48.16328 | 4.99752 | 23204 ft | 425 kts | 117° |
| 2026-04-26 13:01 | 48.14935 | 5.03654 | 23203 ft | 425 kts | 117° |
| 2026-04-26 13:01 | 48.13538 | 5.07561 | 23200 ft | 424 kts | 117° |
| 2026-04-26 13:01 | 48.12143 | 5.11458 | 23202 ft | 425 kts | 118° |
| 2026-04-26 13:01 | 48.10772 | 5.15385 | 23191 ft | 426 kts | 113° |
| 2026-04-26 13:02 | 48.09725 | 5.19510 | 23200 ft | 423 kts | 105° |
| 2026-04-26 13:02 | 48.08926 | 5.23749 | 23200 ft | 423 kts | 104° |
| 2026-04-26 13:02 | 48.08139 | 5.27926 | 23200 ft | 423 kts | 104° |
| 2026-04-26 13:02 | 48.07336 | 5.32155 | 23201 ft | 423 kts | 104° |
| 2026-04-26 13:03 | 48.06528 | 5.36385 | 23199 ft | 423 kts | 104° |
| 2026-04-26 13:03 | 48.05718 | 5.40611 | 23200 ft | 423 kts | 104° |
| 2026-04-26 13:03 | 48.04906 | 5.44837 | 23200 ft | 423 kts | 104° |
| 2026-04-26 13:03 | 48.04091 | 5.49061 | 23199 ft | 423 kts | 104° |
| 2026-04-26 13:04 | 48.03274 | 5.53293 | 23211 ft | 423 kts | 104° |
| 2026-04-26 13:04 | 48.02454 | 5.57523 | 23202 ft | 424 kts | 104° |
| 2026-04-26 13:04 | 48.01632 | 5.61765 | 23195 ft | 424 kts | 104° |
| 2026-04-26 13:04 | 48.00808 | 5.66001 | 23198 ft | 424 kts | 104° |
| 2026-04-26 13:05 | 47.99984 | 5.70231 | 23197 ft | 425 kts | 104° |
| 2026-04-26 13:05 | 47.99159 | 5.74458 | 23200 ft | 424 kts | 104° |
| 2026-04-26 13:05 | 47.98331 | 5.78691 | 23192 ft | 424 kts | 104° |
| 2026-04-26 13:05 | 47.97512 | 5.82866 | 23193 ft | 424 kts | 104° |
| 2026-04-26 13:06 | 47.96682 | 5.87087 | 23193 ft | 424 kts | 104° |
| 2026-04-26 13:06 | 47.95849 | 5.91314 | 23196 ft | 425 kts | 104° |
| 2026-04-26 13:06 | 47.95016 | 5.95536 | 23198 ft | 424 kts | 105° |
| 2026-04-26 13:06 | 47.94179 | 5.99769 | 23192 ft | 424 kts | 105° |
| 2026-04-26 13:07 | 47.93342 | 6.03989 | 23194 ft | 424 kts | 105° |
| 2026-04-26 13:07 | 47.92504 | 6.08207 | 23192 ft | 424 kts | 105° |
| 2026-04-26 13:07 | 47.91662 | 6.12432 | 23188 ft | 424 kts | 105° |
| 2026-04-26 13:07 | 47.90821 | 6.16647 | 23187 ft | 424 kts | 105° |
| 2026-04-26 13:08 | 47.89979 | 6.20855 | 23189 ft | 424 kts | 105° |
| 2026-04-26 13:08 | 47.89142 | 6.25034 | 23189 ft | 425 kts | 105° |
| 2026-04-26 13:08 | 47.88295 | 6.29246 | 23185 ft | 424 kts | 105° |
| 2026-04-26 13:08 | 47.87447 | 6.33460 | 23180 ft | 424 kts | 105° |
| 2026-04-26 13:09 | 47.86599 | 6.37674 | 23182 ft | 425 kts | 106° |
| 2026-04-26 13:09 | 47.85747 | 6.41892 | 23181 ft | 425 kts | 106° |
| 2026-04-26 13:09 | 47.84892 | 6.46113 | 23186 ft | 425 kts | 106° |
| 2026-04-26 13:09 | 47.84037 | 6.50324 | 23187 ft | 425 kts | 106° |
| 2026-04-26 13:10 | 47.83181 | 6.54535 | 23186 ft | 425 kts | 106° |
| 2026-04-26 13:10 | 47.82322 | 6.58748 | 23175 ft | 423 kts | 106° |
| 2026-04-26 13:10 | 47.81483 | 6.62851 | 23185 ft | 406 kts | 106° |
| 2026-04-26 13:10 | 47.80678 | 6.66778 | 23182 ft | 389 kts | 106° |
| 2026-04-26 13:11 | 47.79913 | 6.70498 | 23181 ft | 372 kts | 106° |
| 2026-04-26 13:11 | 47.79171 | 6.74105 | 23186 ft | 356 kts | 106° |
| 2026-04-26 13:11 | 47.78464 | 6.77547 | 23188 ft | 341 kts | 107° |
| 2026-04-26 13:11 | 47.77772 | 6.80910 | 23190 ft | 342 kts | 107° |
| 2026-04-26 13:12 | 47.77069 | 6.84320 | 23191 ft | 347 kts | 107° |
| 2026-04-26 13:12 | 47.76362 | 6.87740 | 23188 ft | 346 kts | 107° |
| 2026-04-26 13:12 | 47.75657 | 6.91145 | 23185 ft | 344 kts | 107° |
| 2026-04-26 13:12 | 47.74950 | 6.94548 | 23191 ft | 345 kts | 107° |
| 2026-04-26 13:13 | 47.74242 | 6.97953 | 23186 ft | 345 kts | 107° |
| 2026-04-26 13:13 | 47.73533 | 7.01360 | 23187 ft | 345 kts | 107° |
| 2026-04-26 13:13 | 47.72822 | 7.04765 | 23189 ft | 345 kts | 107° |
| 2026-04-26 13:13 | 47.72110 | 7.08169 | 23190 ft | 345 kts | 107° |
| 2026-04-26 13:14 | 47.71398 | 7.11572 | 23194 ft | 345 kts | 107° |
| 2026-04-26 13:14 | 47.70686 | 7.14970 | 23193 ft | 345 kts | 107° |
| 2026-04-26 13:14 | 47.69974 | 7.18372 | 23195 ft | 345 kts | 108° |
| 2026-04-26 13:14 | 47.69257 | 7.21786 | 23195 ft | 345 kts | 108° |
| 2026-04-26 13:15 | 47.68538 | 7.25190 | 23194 ft | 346 kts | 108° |
| 2026-04-26 13:15 | 47.67828 | 7.28546 | 23195 ft | 346 kts | 108° |
| 2026-04-26 13:15 | 47.67107 | 7.31956 | 23194 ft | 345 kts | 108° |
| 2026-04-26 13:15 | 47.66621 | 7.34247 | 23195 ft | 346 kts | 108° |
| 2026-04-26 13:16 | 47.65664 | 7.38759 | 23192 ft | 345 kts | 108° |
| 2026-04-26 13:16 | 47.64943 | 7.42155 | 23132 ft | 344 kts | 108° |
| 2026-04-26 13:16 | 47.64227 | 7.45521 | 22857 ft | 342 kts | 108° |
| 2026-04-26 13:16 | 47.63508 | 7.48899 | 22469 ft | 341 kts | 108° |
| 2026-04-26 13:17 | 47.62019 | 7.55532 | 21644 ft | 337 kts | 110° |
| 2026-04-26 13:17 | 47.61243 | 7.58802 | 21247 ft | 335 kts | 110° |
| 2026-04-26 13:18 | 47.59706 | 7.65279 | 20486 ft | 331 kts | 110° |
| 2026-04-26 13:18 | 47.58949 | 7.68489 | 20108 ft | 329 kts | 110° |
| 2026-04-26 13:18 | 47.57434 | 7.74866 | 19391 ft | 326 kts | 110° |
| 2026-04-26 13:19 | 47.56688 | 7.77975 | 19011 ft | 324 kts | 110° |
| 2026-04-26 13:19 | 47.55934 | 7.81119 | 18676 ft | 323 kts | 110° |
| 2026-04-26 13:19 | 47.55182 | 7.84250 | 18301 ft | 321 kts | 110° |
| 2026-04-26 13:19 | 47.54427 | 7.87382 | 17933 ft | 318 kts | 110° |
| 2026-04-26 13:20 | 47.53694 | 7.90420 | 17563 ft | 316 kts | 110° |
| 2026-04-26 13:20 | 47.52949 | 7.93488 | 17039 ft | 315 kts | 110° |
| 2026-04-26 13:20 | 47.52205 | 7.96528 | 16516 ft | 313 kts | 110° |
| 2026-04-26 13:20 | 47.51465 | 7.99537 | 16013 ft | 309 kts | 110° |
| 2026-04-26 13:21 | 47.50734 | 8.02503 | 15516 ft | 305 kts | 110° |
| 2026-04-26 13:21 | 47.50246 | 8.04482 | 15213 ft | 302 kts | 110° |
| 2026-04-26 13:21 | 47.49294 | 8.08333 | 14572 ft | 301 kts | 110° |
| 2026-04-26 13:21 | 47.48571 | 8.11240 | 14104 ft | 300 kts | 110° |
| 2026-04-26 13:22 | 47.47849 | 8.14130 | 13584 ft | 298 kts | 110° |
| 2026-04-26 13:22 | 47.47137 | 8.16983 | 13060 ft | 294 kts | 110° |
| 2026-04-26 13:22 | 47.46432 | 8.19810 | 12545 ft | 291 kts | 110° |
| 2026-04-26 13:22 | 47.45793 | 8.22628 | 12027 ft | 288 kts | 99° |
| 2026-04-26 13:23 | 47.45837 | 8.25497 | 11548 ft | 282 kts | 73° |
| 2026-04-26 13:23 | 47.46741 | 8.28048 | 11048 ft | 276 kts | 46° |
| 2026-04-26 13:23 | 47.48257 | 8.29637 | 10574 ft | 272 kts | 19° |
| 2026-04-26 13:23 | 47.50113 | 8.30020 | 10099 ft | 270 kts | 351° |
| 2026-04-26 13:24 | 47.51849 | 8.29088 | 9580 ft | 266 kts | 323° |
| 2026-04-26 13:24 | 47.53264 | 8.27361 | 9069 ft | 264 kts | 318° |
| 2026-04-26 13:24 | 47.54635 | 8.25568 | 8553 ft | 263 kts | 318° |
| 2026-04-26 13:24 | 47.56004 | 8.23758 | 8045 ft | 261 kts | 318° |
| 2026-04-26 13:25 | 47.57346 | 8.21955 | 7557 ft | 260 kts | 318° |
| 2026-04-26 13:25 | 47.58656 | 8.20160 | 7200 ft | 259 kts | 318° |
| 2026-04-26 13:25 | 47.59969 | 8.18357 | 6947 ft | 256 kts | 319° |
| 2026-04-26 13:25 | 47.61502 | 8.17028 | 6578 ft | 253 kts | 347° |
| 2026-04-26 13:26 | 47.63222 | 8.16968 | 6203 ft | 246 kts | 17° |
| 2026-04-26 13:26 | 47.64648 | 8.18160 | 6114 ft | 241 kts | 46° |
| 2026-04-26 13:26 | 47.65489 | 8.20339 | 6019 ft | 241 kts | 76° |
| 2026-04-26 13:26 | 47.65463 | 8.22700 | 5977 ft | 229 kts | 107° |
| 2026-04-26 13:27 | 47.65201 | 8.23681 | 5982 ft | 223 kts | 113° |
| 2026-04-26 13:27 | 47.64741 | 8.25188 | 5984 ft | 229 kts | 113° |
| 2026-04-26 13:27 | 47.64064 | 8.27375 | 5970 ft | 229 kts | 113° |
| 2026-04-26 13:27 | 47.63460 | 8.29494 | 5824 ft | 225 kts | 107° |
| 2026-04-26 13:28 | 47.63006 | 8.31696 | 5597 ft | 224 kts | 105° |
| 2026-04-26 13:28 | 47.62332 | 8.33789 | 5262 ft | 227 kts | 124° |
| 2026-04-26 13:28 | 47.61309 | 8.35585 | 4981 ft | 229 kts | 133° |
| 2026-04-26 13:28 | 47.60154 | 8.37223 | 4654 ft | 229 kts | 136° |
| 2026-04-26 13:29 | 47.58992 | 8.38813 | 4349 ft | 225 kts | 135° |
| 2026-04-26 13:29 | 47.58238 | 8.39851 | 4163 ft | 221 kts | 135° |
| 2026-04-26 13:29 | 47.56726 | 8.41928 | 3772 ft | 220 kts | 134° |
| 2026-04-26 13:29 | 47.55596 | 8.43474 | 3490 ft | 223 kts | 135° |
| 2026-04-26 13:30 | 47.54465 | 8.45032 | 3185 ft | 219 kts | 135° |
| 2026-04-26 13:30 | 47.53362 | 8.46538 | 2897 ft | 212 kts | 134° |
| 2026-04-26 13:30 | 47.52292 | 8.48005 | 2624 ft | 207 kts | 135° |
| 2026-04-26 13:30 | 47.51257 | 8.49429 | 2327 ft | 198 kts | 133° |
| 2026-04-26 13:31 | 47.50262 | 8.50780 | 2063 ft | 192 kts | 134° |
| 2026-04-26 13:31 | 47.49182 | 8.52158 | 2395 ft | 215 kts | 135° |
| 2026-04-26 13:31 | 47.48028 | 8.53669 | 2900 ft | 228 kts | 134° |
| 2026-04-26 13:31 | 47.46827 | 8.55322 | 3617 ft | 238 kts | 133° |
| 2026-04-26 13:32 | 47.45662 | 8.56959 | 4117 ft | 226 kts | 134° |
| 2026-04-26 13:32 | 47.44502 | 8.58587 | 4029 ft | 233 kts | 134° |
| 2026-04-26 13:32 | 47.43354 | 8.60187 | 3997 ft | 224 kts | 134° |
| 2026-04-26 13:32 | 47.42214 | 8.61803 | 4004 ft | 231 kts | 133° |
| 2026-04-26 13:33 | 47.41155 | 8.63518 | 3989 ft | 220 kts | 113° |
| 2026-04-26 13:33 | 47.40839 | 8.65670 | 4000 ft | 218 kts | 81° |
| 2026-04-26 13:33 | 47.41436 | 8.67719 | 4269 ft | 227 kts | 47° |
| 2026-04-26 13:33 | 47.42787 | 8.68997 | 4983 ft | 240 kts | 20° |
| 2026-04-26 13:34 | 47.44418 | 8.69428 | 5071 ft | 233 kts | 3° |
| 2026-04-26 13:34 | 47.46015 | 8.69379 | 5200 ft | 230 kts | 359° |
| 2026-04-26 13:34 | 47.47617 | 8.69284 | 5281 ft | 229 kts | 359° |
| 2026-04-26 13:34 | 47.48154 | 8.69254 | 5320 ft | 228 kts | 359° |
| 2026-04-26 13:35 | 47.50804 | 8.69113 | 5672 ft | 231 kts | 359° |
| 2026-04-26 13:35 | 47.52414 | 8.69025 | 5905 ft | 234 kts | 359° |
| 2026-04-26 13:35 | 47.54065 | 8.68951 | 5983 ft | 239 kts | 359° |
| 2026-04-26 13:35 | 47.55737 | 8.68879 | 5997 ft | 239 kts | 359° |
| 2026-04-26 13:36 | 47.56843 | 8.68835 | 5998 ft | 240 kts | 359° |
| 2026-04-26 13:36 | 47.58503 | 8.68755 | 6000 ft | 238 kts | 356° |
| 2026-04-26 13:36 | 47.60488 | 8.67464 | 6001 ft | 244 kts | 316° |
| 2026-04-26 13:36 | 47.61284 | 8.66230 | 5982 ft | 244 kts | 314° |
| 2026-04-26 13:37 | 47.62424 | 8.64378 | 5998 ft | 243 kts | 313° |
| 2026-04-26 13:37 | 47.63567 | 8.62518 | 5985 ft | 243 kts | 314° |
| 2026-04-26 13:37 | 47.64697 | 8.60656 | 6003 ft | 243 kts | 313° |
| 2026-04-26 13:37 | 47.65825 | 8.58809 | 5987 ft | 237 kts | 313° |
| 2026-04-26 13:38 | 47.66904 | 8.57063 | 5984 ft | 221 kts | 313° |
| 2026-04-26 13:38 | 47.67894 | 8.55456 | 5986 ft | 202 kts | 313° |
| 2026-04-26 13:38 | 47.68803 | 8.53971 | 6001 ft | 198 kts | 313° |
| 2026-04-26 13:38 | 47.69741 | 8.52433 | 5986 ft | 200 kts | 314° |
| 2026-04-26 13:39 | 47.70645 | 8.50900 | 5990 ft | 196 kts | 313° |
| 2026-04-26 13:39 | 47.71548 | 8.49362 | 5990 ft | 199 kts | 313° |
| 2026-04-26 13:39 | 47.72462 | 8.47838 | 5911 ft | 196 kts | 313° |
| 2026-04-26 13:39 | 47.73368 | 8.46327 | 5597 ft | 197 kts | 313° |
| 2026-04-26 13:40 | 47.74137 | 8.44652 | 5336 ft | 198 kts | 289° |
| 2026-04-26 13:40 | 47.74145 | 8.42624 | 5106 ft | 201 kts | 250° |
| 2026-04-26 13:40 | 47.73397 | 8.40915 | 4994 ft | 199 kts | 221° |
| 2026-04-26 13:40 | 47.72187 | 8.39869 | 4977 ft | 207 kts | 204° |
| 2026-04-26 13:41 | 47.70901 | 8.38998 | 4976 ft | 199 kts | 203° |
| 2026-04-26 13:41 | 47.69649 | 8.38150 | 4993 ft | 190 kts | 203° |
| 2026-04-26 13:41 | 47.68503 | 8.37375 | 4964 ft | 173 kts | 203° |
| 2026-04-26 13:41 | 47.67416 | 8.36647 | 4750 ft | 172 kts | 203° |
| 2026-04-26 13:42 | 47.66361 | 8.35932 | 4621 ft | 160 kts | 203° |
| 2026-04-26 13:42 | 47.65369 | 8.35255 | 4392 ft | 157 kts | 203° |
| 2026-04-26 13:42 | 47.64335 | 8.35006 | 4211 ft | 149 kts | 174° |
| 2026-04-26 13:42 | 47.63315 | 8.35114 | 4118 ft | 150 kts | 173° |
| 2026-04-26 13:43 | 47.62343 | 8.35588 | 3998 ft | 144 kts | 139° |
| 2026-04-26 13:43 | 47.61504 | 8.36350 | 3982 ft | 147 kts | 149° |
| 2026-04-26 13:43 | 47.60603 | 8.37050 | 3982 ft | 150 kts | 147° |
| 2026-04-26 13:43 | 47.59821 | 8.37816 | 3978 ft | 147 kts | 140° |
| 2026-04-26 13:44 | 47.59306 | 8.38427 | 3981 ft | 148 kts | 136° |
| 2026-04-26 13:44 | 47.58696 | 8.39223 | 3984 ft | 146 kts | 134° |
| 2026-04-26 13:44 | 47.57932 | 8.40267 | 4008 ft | 149 kts | 134° |
| 2026-04-26 13:44 | 47.57163 | 8.41326 | 3818 ft | 148 kts | 132° |
| 2026-04-26 13:45 | 47.56427 | 8.42340 | 3672 ft | 144 kts | 133° |
| 2026-04-26 13:45 | 47.55686 | 8.43358 | 3490 ft | 146 kts | 133° |
| 2026-04-26 13:45 | 47.54955 | 8.44355 | 3308 ft | 142 kts | 133° |
| 2026-04-26 13:45 | 47.54262 | 8.45311 | 3152 ft | 141 kts | 133° |
| 2026-04-26 13:46 | 47.53521 | 8.46319 | 2944 ft | 143 kts | 133° |
| 2026-04-26 13:46 | 47.52805 | 8.47308 | 2777 ft | 140 kts | 134° |
| 2026-04-26 13:46 | 47.52104 | 8.48264 | 2576 ft | 137 kts | 131° |
| 2026-04-26 13:46 | 47.51395 | 8.49237 | 2381 ft | 135 kts | 131° |
| 2026-04-26 13:47 | 47.50700 | 8.50174 | 2230 ft | 139 kts | 133° |
| 2026-04-26 13:47 | 47.49985 | 8.51134 | 1988 ft | 137 kts | 134° |
| 2026-04-26 13:47 | 47.49302 | 8.52082 | 1792 ft | 133 kts | 132° |
| 2026-04-26 13:47 | 47.48631 | 8.53012 | 1570 ft | 133 kts | 131° |
| 2026-04-26 13:48 | 47.47947 | 8.53968 | 1418 ft | 133 kts | 133° |
| 2026-04-26 13:48 | 47.47348 | 8.54787 | 1401 ft | 90 kts | 137° |
| 2026-04-26 13:48 | 47.47006 | 8.55247 | 1395 ft | 50 kts | 136° |
| 2026-04-26 13:48 | 47.46788 | 8.55540 | 1401 ft | 39 kts | 144° |
| 2026-04-26 13:49 | 47.46595 | 8.55677 | 1399 ft | 21 kts | 165° |
| 2026-04-26 13:49 | 47.46499 | 8.55710 | 1406 ft | 8 kts | 168° |
| 2026-04-26 13:49 | 47.46437 | 8.55730 | 1400 ft | 11 kts | 167° |
| 2026-04-26 13:49 | 47.46407 | 8.55741 | 1402 ft | 3 kts | 163° |
| 2026-04-26 13:50 | 47.46374 | 8.55770 | 1401 ft | 8 kts | 140° |
| 2026-04-26 13:50 | 47.46329 | 8.55830 | 1404 ft | 8 kts | 138° |
| 2026-04-26 13:50 | 47.46291 | 8.55880 | 1401 ft | 9 kts | 140° |
| 2026-04-26 13:50 | 47.46232 | 8.55859 | 1399 ft | 11 kts | 247° |
| 2026-04-26 13:51 | 47.46238 | 8.55731 | 1400 ft | 15 kts | 276° |
| 2026-04-26 13:51 | 47.46252 | 8.55550 | 1404 ft | 20 kts | 276° |
| 2026-04-26 13:51 | 47.46268 | 8.55320 | 1402 ft | 24 kts | 277° |
| 2026-04-26 13:51 | 47.46285 | 8.55111 | 1399 ft | 20 kts | 276° |
| 2026-04-26 13:52 | 47.46290 | 8.55030 | 1397 ft | 2 kts | 274° |
| 2026-04-26 13:52 | 47.46285 | 8.54987 | 1397 ft | 6 kts | 250° |
| 2026-04-26 13:52 | 47.46236 | 8.54946 | 1399 ft | 12 kts | 182° |
| 2026-04-26 13:52 | 47.46154 | 8.54992 | 1397 ft | 6 kts | 155° |
| 2026-04-26 13:53 | 47.46113 | 8.55033 | 1398 ft | 8 kts | 114° |
| 2026-04-26 13:53 | 47.46123 | 8.55070 | 1401 ft | 3 kts | 61° |
| 2026-04-26 13:53 | 47.46133 | 8.55101 | 1399 ft | 5 kts | 65° |
| 2026-04-26 13:53 | 47.46135 | 8.55107 | 1398 ft | 0 kts | 65° |